Time;durP1;ratioP1;P1;durP2;ratioP2;P2;SDS_P1;SDS_P2;PMS_P1;PMS_P2;Temp;Humidity;BMP_temperature;BMP_pressure;BME280_temperature;BME280_humidity;BME280_pressure;Samples;Min_cycle;Max_cycle;Signal;HPM_P1;HPM_P2
2023/04/30 00:02:08;;;;;;;3.67;2.60;;;;;;;;;;5020010;28;20026;-79
2023/04/30 00:04:33;;;;;;;4.50;2.47;;;;;;;;;;5019138;28;20361;-76
2023/04/30 00:06:59;;;;;;;3.45;2.60;;;;;;;;;;5018471;28;20038;-76
2023/04/30 00:09:25;;;;;;;3.53;2.53;;;;;;;;;;5019282;28;20022;-77
2023/04/30 00:11:50;;;;;;;4.22;2.58;;;;;;;;;;5019408;28;20283;-78
2023/04/30 00:14:16;;;;;;;3.10;2.15;;;;;;;;;;5019005;28;20034;-77
2023/04/30 00:16:41;;;;;;;3.30;2.40;;;;;;;;;;5020481;28;20021;-78
2023/04/30 00:19:07;;;;;;;2.88;2.08;;;;;;;;;;5018998;28;20041;-77
2023/04/30 00:21:33;;;;;;;4.35;2.20;;;;;;;;;;5018870;28;20025;-77
2023/04/30 00:24:01;;;;;;;3.83;1.98;;;;;;;;;;5017590;28;20026;-76
2023/04/30 00:26:26;;;;;;;2.45;1.90;;;;;;;;;;5017641;28;20079;-74
2023/04/30 00:28:52;;;;;;;2.58;1.92;;;;;;;;;;5018918;28;20607;-77
2023/04/30 00:31:17;;;;;;;2.30;1.90;;;;;;;;;;5018646;28;20050;-78
2023/04/30 00:33:42;;;;;;;3.75;2.00;;;;;;;;;;5019654;28;20120;-78
2023/04/30 00:36:08;;;;;;;2.97;2.10;;;;;;;;;;5019179;28;20025;-74
2023/04/30 00:38:33;;;;;;;2.50;1.98;;;;;;;;;;5019135;28;20050;-77
2023/04/30 00:40:59;;;;;;;3.70;2.20;;;;;;;;;;5018692;28;20375;-76
2023/04/30 00:43:25;;;;;;;3.00;2.28;;;;;;;;;;5017000;28;20033;-77
2023/04/30 00:45:50;;;;;;;3.28;2.20;;;;;;;;;;5019071;28;20032;-78
2023/04/30 00:48:16;;;;;;;4.07;2.70;;;;;;;;;;5019083;28;20233;-77
2023/04/30 00:50:43;;;;;;;4.05;2.83;;;;;;;;;;5018608;28;20100;-78
2023/04/30 00:53:09;;;;;;;4.53;3.13;;;;;;;;;;5018569;28;20034;-76
2023/04/30 00:55:34;;;;;;;4.95;3.40;;;;;;;;;;5019892;28;20032;-75
2023/04/30 00:58:00;;;;;;;4.50;3.70;;;;;;;;;;5021833;28;20053;-76
2023/04/30 01:00:26;;;;;;;5.07;3.65;;;;;;;;;;5021980;28;20047;-78
2023/04/30 01:02:52;;;;;;;5.10;4.00;;;;;;;;;;5021197;28;20036;-77
2023/04/30 01:05:18;;;;;;;6.05;4.18;;;;;;;;;;5023252;28;20038;-75
2023/04/30 01:07:45;;;;;;;6.80;4.93;;;;;;;;;;5020944;28;20030;-78
2023/04/30 01:10:13;;;;;;;8.77;5.85;;;;;;;;;;5022207;28;20037;-77
2023/04/30 01:13:02;;;;;;;9.07;6.07;;;;;;;;;;5021595;28;20082;-76
2023/04/30 01:15:48;;;;;;;7.35;5.35;;;;;;;;;;5022632;28;20021;-77
2023/04/30 01:18:27;;;;;;;8.40;5.50;;;;;;;;;;5022741;28;20021;-77
2023/04/30 01:20:57;;;;;;;12.30;6.25;;;;;;;;;;5021630;28;20052;-77
2023/04/30 01:23:50;;;;;;;12.27;6.40;;;;;;;;;;5021250;28;20096;-76
2023/04/30 01:26:22;;;;;;;8.85;6.13;;;;;;;;;;5022177;28;20045;-77
2023/04/30 01:28:49;;;;;;;9.82;6.65;;;;;;;;;;5021629;28;20026;-79
2023/04/30 01:31:18;;;;;;;9.80;6.50;;;;;;;;;;5022583;28;20092;-76
2023/04/30 01:33:43;;;;;;;9.57;5.90;;;;;;;;;;5021780;28;20081;-78
2023/04/30 01:36:16;;;;;;;8.40;5.78;;;;;;;;;;5020680;28;20049;-74
2023/04/30 01:39:04;;;;;;;8.77;5.80;;;;;;;;;;5021603;28;20056;-77
2023/04/30 01:42:00;;;;;;;8.15;5.55;;;;;;;;;;5015743;28;20044;-78
2023/04/30 01:44:34;;;;;;;6.90;5.50;;;;;;;;;;5022772;28;20059;-76
2023/04/30 01:47:27;;;;;;;7.95;5.03;;;;;;;;;;5022790;28;20029;-76
2023/04/30 01:50:13;;;;;;;6.50;4.55;;;;;;;;;;5022429;28;20049;-79
2023/04/30 01:52:42;;;;;;;6.88;4.30;;;;;;;;;;5021613;28;20064;-78
2023/04/30 01:55:10;;;;;;;5.47;4.70;;;;;;;;;;5022107;28;20249;-73
2023/04/30 01:57:42;;;;;;;4.88;3.88;;;;;;;;;;5022305;28;20057;-77
2023/04/30 02:00:11;;;;;;;5.40;4.30;;;;;;;;;;5021461;28;20342;-76
2023/04/30 02:02:37;;;;;;;5.97;4.07;;;;;;;;;;5022746;28;20022;-76
2023/04/30 02:05:02;;;;;;;6.22;4.00;;;;;;;;;;5021950;28;20028;-74
2023/04/30 02:07:38;;;;;;;5.97;4.10;;;;;;;;;;5020933;28;20028;-77
2023/04/30 02:10:06;;;;;;;7.85;4.30;;;;;;;;;;5020931;28;20076;-77
2023/04/30 02:12:31;;;;;;;5.72;4.05;;;;;;;;;;5019586;28;20026;-77
2023/04/30 02:14:57;;;;;;;4.95;3.63;;;;;;;;;;5020938;28;20026;-77
2023/04/30 02:17:22;;;;;;;6.10;4.03;;;;;;;;;;5022161;28;20029;-77
2023/04/30 02:19:47;;;;;;;5.30;3.92;;;;;;;;;;5020812;28;20183;-78
2023/04/30 02:22:13;;;;;;;4.95;4.03;;;;;;;;;;5019838;28;20034;-73
2023/04/30 02:24:38;;;;;;;5.68;4.00;;;;;;;;;;5015806;28;20056;-75
2023/04/30 02:27:04;;;;;;;6.47;3.97;;;;;;;;;;5020988;28;20030;-77
2023/04/30 02:29:29;;;;;;;5.13;3.72;;;;;;;;;;5020866;28;20033;-78
2023/04/30 02:31:58;;;;;;;6.97;3.83;;;;;;;;;;5020677;28;20325;-72
2023/04/30 02:34:23;;;;;;;7.53;4.10;;;;;;;;;;5021322;28;20072;-78
2023/04/30 02:36:49;;;;;;;5.63;4.03;;;;;;;;;;5020683;28;20089;-77
2023/04/30 02:39:14;;;;;;;5.07;3.97;;;;;;;;;;5021422;28;20113;-78
2023/04/30 02:41:39;;;;;;;5.85;4.35;;;;;;;;;;5021320;28;20045;-78
2023/04/30 02:44:05;;;;;;;5.13;4.10;;;;;;;;;;5020973;28;20029;-77
2023/04/30 02:46:30;;;;;;;5.55;4.20;;;;;;;;;;5021186;28;20229;-74
2023/04/30 02:48:55;;;;;;;5.20;4.28;;;;;;;;;;5020480;28;20017;-79
2023/04/30 02:51:21;;;;;;;5.65;4.28;;;;;;;;;;5020300;28;20415;-77
2023/04/30 02:53:46;;;;;;;5.50;4.20;;;;;;;;;;5016364;28;20040;-77
2023/04/30 02:56:12;;;;;;;5.93;4.70;;;;;;;;;;5020432;28;20026;-78
2023/04/30 02:58:37;;;;;;;6.03;4.28;;;;;;;;;;5020356;28;20041;-73
2023/04/30 03:01:03;;;;;;;6.85;4.53;;;;;;;;;;5020658;28;20282;-71
2023/04/30 03:03:28;;;;;;;6.35;4.25;;;;;;;;;;5018945;28;20040;-71
2023/04/30 03:05:55;;;;;;;5.93;4.18;;;;;;;;;;5019486;28;20037;-76
2023/04/30 03:08:21;;;;;;;6.57;4.07;;;;;;;;;;5019929;28;20037;-75
2023/04/30 03:10:46;;;;;;;7.78;4.25;;;;;;;;;;5020220;28;20057;-78
2023/04/30 03:13:11;;;;;;;5.80;4.00;;;;;;;;;;5019704;28;20080;-79
2023/04/30 03:15:37;;;;;;;6.68;4.60;;;;;;;;;;5020179;28;20442;-78
2023/04/30 03:18:03;;;;;;;5.57;4.03;;;;;;;;;;5019529;28;20060;-78
2023/04/30 03:20:29;;;;;;;5.47;4.40;;;;;;;;;;5018136;28;20033;-77
2023/04/30 03:22:54;;;;;;;7.03;4.60;;;;;;;;;;5018884;28;20076;-77
2023/04/30 03:25:19;;;;;;;5.43;4.30;;;;;;;;;;5019793;28;20420;-78
2023/04/30 03:27:45;;;;;;;5.30;4.32;;;;;;;;;;5020386;28;20022;-77
2023/04/30 03:30:10;;;;;;;6.32;4.22;;;;;;;;;;5020189;28;20049;-75
2023/04/30 03:32:36;;;;;;;7.20;4.07;;;;;;;;;;5018481;28;20540;-78
2023/04/30 03:35:01;;;;;;;5.65;4.22;;;;;;;;;;5018374;28;20094;-77
2023/04/30 03:37:26;;;;;;;5.65;4.38;;;;;;;;;;5019849;28;20365;-78
2023/04/30 03:39:52;;;;;;;7.13;4.60;;;;;;;;;;5018722;28;20080;-78
2023/04/30 03:42:17;;;;;;;6.10;4.80;;;;;;;;;;5019680;28;20490;-79
2023/04/30 03:44:42;;;;;;;6.15;4.30;;;;;;;;;;5020123;28;20033;-78
2023/04/30 03:47:08;;;;;;;6.45;4.53;;;;;;;;;;5017573;28;20022;-79
2023/04/30 03:49:33;;;;;;;6.13;4.10;;;;;;;;;;5018302;28;20022;-78
2023/04/30 03:51:59;;;;;;;8.20;4.10;;;;;;;;;;5018664;28;20029;-77
2023/04/30 03:54:25;;;;;;;5.18;3.90;;;;;;;;;;5019067;28;20029;-75
2023/04/30 03:56:50;;;;;;;5.30;4.00;;;;;;;;;;5018975;28;20021;-76
2023/04/30 03:59:16;;;;;;;5.40;4.07;;;;;;;;;;5019711;28;20045;-79
2023/04/30 04:01:42;;;;;;;7.80;4.10;;;;;;;;;;5019266;28;20064;-76
2023/04/30 04:04:08;;;;;;;5.47;4.10;;;;;;;;;;5018871;28;20028;-78
2023/04/30 04:06:33;;;;;;;5.90;4.40;;;;;;;;;;5018368;28;20045;-79
2023/04/30 04:08:59;;;;;;;5.68;4.10;;;;;;;;;;5018690;28;20041;-77
2023/04/30 04:11:25;;;;;;;5.88;4.10;;;;;;;;;;5019022;28;20025;-79
2023/04/30 04:13:50;;;;;;;4.80;3.95;;;;;;;;;;5018780;28;20115;-78
2023/04/30 04:16:15;;;;;;;6.40;4.82;;;;;;;;;;5019708;28;20080;-79
2023/04/30 04:18:41;;;;;;;8.95;4.65;;;;;;;;;;5019226;28;20032;-80
2023/04/30 04:21:06;;;;;;;6.80;4.70;;;;;;;;;;5018937;28;20030;-79
2023/04/30 04:23:32;;;;;;;5.70;4.50;;;;;;;;;;5018524;28;20318;-79
2023/04/30 04:25:57;;;;;;;7.10;4.95;;;;;;;;;;5018325;28;20022;-78
2023/04/30 04:28:22;;;;;;;7.15;4.65;;;;;;;;;;5017980;28;20049;-78
2023/04/30 04:30:48;;;;;;;7.35;4.85;;;;;;;;;;5015312;28;20069;-79
2023/04/30 04:33:13;;;;;;;6.75;4.93;;;;;;;;;;5018868;28;20041;-79
2023/04/30 04:35:39;;;;;;;5.82;4.80;;;;;;;;;;5018354;28;20022;-80
2023/04/30 04:38:04;;;;;;;7.35;5.07;;;;;;;;;;5019177;28;20089;-77
2023/04/30 04:40:30;;;;;;;6.28;4.70;;;;;;;;;;5019421;28;20026;-75
2023/04/30 04:42:55;;;;;;;7.57;4.93;;;;;;;;;;5019476;28;20030;-77
2023/04/30 04:45:21;;;;;;;6.63;5.07;;;;;;;;;;5017507;28;20028;-79
2023/04/30 04:47:47;;;;;;;7.65;4.82;;;;;;;;;;5018649;28;20327;-78
2023/04/30 04:50:13;;;;;;;6.93;4.97;;;;;;;;;;5017804;28;20414;-79
2023/04/30 04:52:38;;;;;;;6.85;5.10;;;;;;;;;;5018244;28;20484;-76
2023/04/30 04:55:04;;;;;;;7.47;5.00;;;;;;;;;;5016448;28;20021;-77
2023/04/30 04:57:30;;;;;;;7.10;5.38;;;;;;;;;;5018721;28;20032;-78
2023/04/30 04:59:55;;;;;;;7.07;5.70;;;;;;;;;;5017830;28;20190;-73
2023/04/30 05:02:22;;;;;;;8.65;5.53;;;;;;;;;;5017329;28;20045;-76
2023/04/30 05:04:49;;;;;;;6.28;5.20;;;;;;;;;;5017249;28;20096;-79
2023/04/30 05:07:18;;;;;;;7.05;5.18;;;;;;;;;;5018132;28;20028;-76
2023/04/30 05:09:45;;;;;;;6.85;5.15;;;;;;;;;;5018494;28;20092;-75
2023/04/30 05:12:11;;;;;;;8.88;5.72;;;;;;;;;;5018151;28;20073;-78
2023/04/30 05:14:40;;;;;;;8.50;5.50;;;;;;;;;;5018260;28;20033;-80
2023/04/30 05:17:05;;;;;;;8.23;5.72;;;;;;;;;;5018106;28;20037;-78
2023/04/30 05:19:31;;;;;;;7.68;5.70;;;;;;;;;;5017151;28;20041;-78
2023/04/30 05:21:57;;;;;;;7.63;5.85;;;;;;;;;;5018599;28;20318;-73
2023/04/30 05:24:22;;;;;;;10.93;6.50;;;;;;;;;;5016652;28;20034;-74
2023/04/30 05:26:48;;;;;;;8.48;5.75;;;;;;;;;;5018014;28;20245;-79
2023/04/30 05:29:13;;;;;;;8.25;5.78;;;;;;;;;;5018032;28;20034;-79
2023/04/30 05:31:39;;;;;;;9.77;5.97;;;;;;;;;;5018184;28;20025;-76
2023/04/30 05:34:04;;;;;;;10.75;6.03;;;;;;;;;;5018600;28;20036;-75
2023/04/30 05:36:30;;;;;;;10.20;6.28;;;;;;;;;;5018591;28;20018;-78
2023/04/30 05:38:56;;;;;;;11.18;5.85;;;;;;;;;;5018499;28;20385;-77
2023/04/30 05:41:22;;;;;;;10.73;6.28;;;;;;;;;;5016649;28;20034;-79
2023/04/30 05:43:47;;;;;;;10.38;6.35;;;;;;;;;;5011533;28;20507;-78
2023/04/30 05:46:13;;;;;;;9.02;6.43;;;;;;;;;;5011025;28;20517;-77
2023/04/30 05:48:38;;;;;;;8.85;6.68;;;;;;;;;;5010277;28;20030;-77
2023/04/30 05:51:07;;;;;;;10.80;6.53;;;;;;;;;;5010864;28;20057;-76
2023/04/30 05:53:32;;;;;;;10.00;7.35;;;;;;;;;;5011204;28;20601;-78
2023/04/30 05:55:58;;;;;;;11.50;6.72;;;;;;;;;;5011450;28;20028;-79
2023/04/30 05:58:24;;;;;;;10.25;6.47;;;;;;;;;;5011605;28;20433;-73
2023/04/30 06:00:50;;;;;;;9.23;6.85;;;;;;;;;;5011426;28;20106;-74
2023/04/30 06:03:19;;;;;;;11.60;7.25;;;;;;;;;;5002359;28;20129;-78
2023/04/30 06:05:45;;;;;;;9.60;6.93;;;;;;;;;;4998063;28;20029;-79
2023/04/30 06:08:11;;;;;;;8.70;6.68;;;;;;;;;;5001951;28;20234;-78
2023/04/30 06:10:37;;;;;;;11.90;7.18;;;;;;;;;;5002457;28;20072;-78
2023/04/30 06:13:03;;;;;;;13.38;7.55;;;;;;;;;;5000740;28;20290;-76
2023/04/30 06:15:28;;;;;;;13.10;7.22;;;;;;;;;;5001318;28;20655;-78
2023/04/30 06:17:54;;;;;;;10.82;7.85;;;;;;;;;;5001717;28;20089;-78
2023/04/30 06:20:19;;;;;;;11.45;7.25;;;;;;;;;;5001239;28;20084;-79
2023/04/30 06:22:45;;;;;;;11.18;7.90;;;;;;;;;;5001119;28;20202;-80
2023/04/30 06:25:10;;;;;;;10.60;7.90;;;;;;;;;;5001471;28;20038;-80
2023/04/30 06:27:38;;;;;;;11.35;7.97;;;;;;;;;;5001358;28;20441;-76
2023/04/30 06:30:04;;;;;;;12.18;7.88;;;;;;;;;;5000919;28;20026;-79
2023/04/30 06:32:30;;;;;;;15.02;8.27;;;;;;;;;;5001832;28;20067;-73
2023/04/30 06:34:55;;;;;;;14.13;8.52;;;;;;;;;;5000979;28;20029;-79
2023/04/30 06:37:20;;;;;;;13.93;8.98;;;;;;;;;;5001041;28;20061;-80
2023/04/30 06:39:46;;;;;;;15.20;9.15;;;;;;;;;;5000016;28;20034;-79
2023/04/30 06:42:11;;;;;;;16.52;9.10;;;;;;;;;;5001913;28;20382;-78
2023/04/30 06:44:37;;;;;;;13.18;9.05;;;;;;;;;;5001603;28;20089;-79
2023/04/30 06:47:02;;;;;;;15.13;8.63;;;;;;;;;;5002016;28;20090;-75
2023/04/30 06:49:27;;;;;;;15.07;8.25;;;;;;;;;;5000806;28;20030;-79
2023/04/30 06:51:54;;;;;;;16.85;9.27;;;;;;;;;;4999132;28;20046;-76
2023/04/30 06:54:21;;;;;;;14.43;8.93;;;;;;;;;;4998692;28;20030;-75
2023/04/30 06:56:47;;;;;;;14.02;8.23;;;;;;;;;;4999977;28;20027;-75
2023/04/30 06:59:12;;;;;;;13.25;8.02;;;;;;;;;;5000370;28;20337;-77
2023/04/30 07:01:38;;;;;;;14.13;7.93;;;;;;;;;;5002042;28;20065;-78
2023/04/30 07:04:03;;;;;;;12.32;7.75;;;;;;;;;;5011434;28;20033;-79
2023/04/30 07:06:29;;;;;;;11.13;6.95;;;;;;;;;;5009561;28;20030;-77
2023/04/30 07:08:54;;;;;;;13.93;7.55;;;;;;;;;;5010019;28;20479;-74
2023/04/30 07:11:20;;;;;;;13.48;7.95;;;;;;;;;;5010055;28;20026;-79
2023/04/30 07:13:45;;;;;;;15.48;8.27;;;;;;;;;;5012253;28;20086;-76
2023/04/30 07:16:11;;;;;;;17.13;10.70;;;;;;;;;;5009859;28;20048;-77
2023/04/30 07:18:39;;;;;;;12.40;7.57;;;;;;;;;;5011556;28;20017;-77
2023/04/30 07:21:05;;;;;;;12.48;7.72;;;;;;;;;;5005328;28;20286;-79
2023/04/30 07:23:30;;;;;;;14.40;7.70;;;;;;;;;;5007755;28;20493;-80
2023/04/30 07:25:56;;;;;;;14.77;8.00;;;;;;;;;;5007389;28;20022;-73
2023/04/30 07:28:21;;;;;;;12.25;7.30;;;;;;;;;;5010807;28;20071;-77
2023/04/30 07:30:46;;;;;;;11.75;7.35;;;;;;;;;;5005439;28;20026;-76
2023/04/30 07:33:12;;;;;;;13.98;7.38;;;;;;;;;;5000925;28;20029;-75
2023/04/30 07:35:37;;;;;;;10.20;6.90;;;;;;;;;;5000630;28;20445;-76
2023/04/30 07:38:04;;;;;;;12.85;7.88;;;;;;;;;;4998086;28;20023;-75
2023/04/30 07:40:30;;;;;;;9.93;7.25;;;;;;;;;;5000376;28;20077;-75
2023/04/30 07:42:55;;;;;;;14.32;6.95;;;;;;;;;;5000571;28;20218;-75
2023/04/30 07:45:20;;;;;;;10.95;6.88;;;;;;;;;;4999844;28;20018;-76
2023/04/30 07:47:47;;;;;;;11.65;6.45;;;;;;;;;;4999897;28;20026;-74
2023/04/30 07:50:13;;;;;;;10.25;5.82;;;;;;;;;;4999182;28;20026;-74
2023/04/30 07:52:40;;;;;;;11.68;6.00;;;;;;;;;;5006832;28;20360;-76
2023/04/30 07:55:05;;;;;;;9.35;5.65;;;;;;;;;;5009065;28;20326;-76
2023/04/30 07:57:31;;;;;;;8.63;5.22;;;;;;;;;;5007744;28;20022;-75
2023/04/30 07:59:56;;;;;;;8.55;5.30;;;;;;;;;;5009668;28;20037;-74
2023/04/30 08:02:22;;;;;;;8.93;5.20;;;;;;;;;;5007097;28;20018;-75
2023/04/30 08:04:47;;;;;;;8.27;4.45;;;;;;;;;;5010389;28;20018;-76
2023/04/30 08:07:14;;;;;;;6.63;4.03;;;;;;;;;;5008003;28;20034;-75
2023/04/30 08:09:40;;;;;;;5.82;4.20;;;;;;;;;;5008182;28;20022;-76
2023/04/30 08:12:05;;;;;;;9.60;6.43;;;;;;;;;;5009969;28;20037;-76
2023/04/30 08:14:31;;;;;;;5.53;3.78;;;;;;;;;;5009420;28;20030;-74
2023/04/30 08:16:58;;;;;;;7.03;4.20;;;;;;;;;;5006695;28;20026;-76
2023/04/30 08:19:23;;;;;;;7.13;4.30;;;;;;;;;;5008614;28;20101;-75
2023/04/30 08:21:49;;;;;;;6.40;3.72;;;;;;;;;;5007407;28;20021;-75
2023/04/30 08:24:15;;;;;;;6.15;3.95;;;;;;;;;;5008655;28;20022;-76
2023/04/30 08:26:40;;;;;;;6.95;3.90;;;;;;;;;;5002804;28;20048;-75
2023/04/30 08:29:07;;;;;;;7.65;4.30;;;;;;;;;;4998520;28;20097;-76
2023/04/30 08:31:33;;;;;;;8.82;5.43;;;;;;;;;;4997150;28;20056;-74
2023/04/30 08:33:58;;;;;;;11.50;6.85;;;;;;;;;;4998776;28;20372;-74
2023/04/30 08:36:24;;;;;;;10.48;5.70;;;;;;;;;;4998149;28;20089;-75
2023/04/30 08:38:49;;;;;;;9.98;5.95;;;;;;;;;;4998451;28;20022;-74
2023/04/30 08:41:15;;;;;;;8.30;5.65;;;;;;;;;;5000273;28;20337;-76
2023/04/30 08:43:43;;;;;;;10.05;5.88;;;;;;;;;;5000146;28;20023;-76
2023/04/30 08:46:10;;;;;;;9.30;6.45;;;;;;;;;;5000480;28;20166;-75
2023/04/30 08:48:35;;;;;;;10.23;6.38;;;;;;;;;;4999953;28;20318;-75
2023/04/30 08:51:02;;;;;;;17.77;10.88;;;;;;;;;;4999976;28;20030;-75
2023/04/30 08:53:35;;;;;;;11.80;7.22;;;;;;;;;;4999956;28;20099;-75
2023/04/30 08:56:01;;;;;;;14.85;6.63;;;;;;;;;;5000097;28;20030;-76
2023/04/30 08:58:27;;;;;;;10.63;6.78;;;;;;;;;;4998032;28;20054;-76
2023/04/30 09:00:52;;;;;;;12.65;6.78;;;;;;;;;;5000214;28;20026;-76
2023/04/30 09:03:18;;;;;;;11.88;6.55;;;;;;;;;;4998606;28;20237;-75
2023/04/30 09:05:43;;;;;;;10.45;6.80;;;;;;;;;;4999830;28;20037;-74
2023/04/30 09:08:16;;;;;;;14.80;6.75;;;;;;;;;;4999701;28;20550;-75
2023/04/30 09:10:42;;;;;;;11.38;6.03;;;;;;;;;;4998003;28;20042;-76
2023/04/30 09:13:12;;;;;;;12.25;6.53;;;;;;;;;;4998004;28;20085;-73
2023/04/30 09:15:44;;;;;;;11.75;6.63;;;;;;;;;;4998795;28;20336;-83
2023/04/30 09:18:10;;;;;;;11.05;6.57;;;;;;;;;;5002642;28;20046;-83
2023/04/30 09:20:36;;;;;;;10.60;6.05;;;;;;;;;;5001964;28;20101;-77
2023/04/30 09:23:09;;;;;;;10.88;5.85;;;;;;;;;;5001472;28;20042;-75
2023/04/30 09:25:42;;;;;;;14.43;6.82;;;;;;;;;;5002133;28;20105;-77
2023/04/30 09:28:11;;;;;;;13.23;6.43;;;;;;;;;;5003249;28;20033;-77
2023/04/30 09:30:39;;;;;;;12.50;6.43;;;;;;;;;;5002956;28;20417;-77
2023/04/30 09:33:04;;;;;;;12.23;6.85;;;;;;;;;;5010993;28;20033;-78
2023/04/30 09:35:37;;;;;;;12.70;6.72;;;;;;;;;;5012781;28;20068;-80
2023/04/30 09:38:03;;;;;;;12.48;6.90;;;;;;;;;;5009418;28;20313;-80
2023/04/30 09:40:41;;;;;;;14.20;7.10;;;;;;;;;;5012530;28;20092;-78
2023/04/30 09:43:07;;;;;;;11.25;7.00;;;;;;;;;;5009898;28;20096;-78
2023/04/30 09:45:46;;;;;;;13.32;7.78;;;;;;;;;;5010553;28;20075;-78
2023/04/30 09:48:11;;;;;;;16.55;7.47;;;;;;;;;;5009976;28;20053;-81
2023/04/30 09:50:41;;;;;;;12.23;7.45;;;;;;;;;;5010361;28;20152;-83
2023/04/30 09:53:16;;;;;;;13.48;7.47;;;;;;;;;;5009813;28;20140;-78
2023/04/30 09:55:49;;;;;;;13.25;7.38;;;;;;;;;;5008228;28;20022;-78
2023/04/30 09:58:17;;;;;;;13.35;7.38;;;;;;;;;;5012258;28;20042;-86
2023/04/30 10:00:44;;;;;;;13.88;7.20;;;;;;;;;;5008274;28;20319;-78
2023/04/30 10:03:12;;;;;;;15.80;7.28;;;;;;;;;;5003920;28;20026;-78
2023/04/30 10:05:41;;;;;;;13.95;7.47;;;;;;;;;;5002589;28;20314;-77
2023/04/30 10:08:18;;;;;;;13.95;7.30;;;;;;;;;;5002877;28;20033;-88
2023/04/30 10:10:50;;;;;;;14.88;7.13;;;;;;;;;;5001509;28;20022;-79
2023/04/30 10:13:19;;;;;;;11.48;6.93;;;;;;;;;;5001729;28;20031;-77
2023/04/30 10:15:55;;;;;;;12.73;7.45;;;;;;;;;;5001114;28;20034;-77
2023/04/30 10:18:47;;;;;;;13.45;6.90;;;;;;;;;;5001525;28;20209;-77
2023/04/30 10:21:16;;;;;;;13.35;7.32;;;;;;;;;;5000889;28;20105;-79
2023/04/30 10:23:43;;;;;;;10.35;6.97;;;;;;;;;;5002325;28;20029;-76
2023/04/30 10:26:11;;;;;;;11.32;6.72;;;;;;;;;;5000880;28;20022;-80
2023/04/30 10:28:39;;;;;;;12.32;7.50;;;;;;;;;;5000796;28;20242;-79
2023/04/30 10:31:06;;;;;;;11.05;7.45;;;;;;;;;;5001509;28;20064;-79
2023/04/30 10:33:55;;;;;;;12.57;7.82;;;;;;;;;;5002147;28;20022;-82
2023/04/30 10:36:53;;;;;;;12.13;7.32;;;;;;;;;;5002154;28;20049;-77
2023/04/30 10:39:21;;;;;;;17.02;7.97;;;;;;;;;;5002579;28;20053;-77
2023/04/30 10:41:47;;;;;;;15.52;9.10;;;;;;;;;;5000615;28;20034;-78
2023/04/30 10:44:24;;;;;;;17.40;9.50;;;;;;;;;;5001243;28;20022;-77
2023/04/30 10:46:57;;;;;;;15.05;9.38;;;;;;;;;;5001838;28;20033;-79
2023/04/30 10:49:26;;;;;;;15.88;9.52;;;;;;;;;;5000883;28;20037;-84
2023/04/30 10:51:55;;;;;;;14.07;8.98;;;;;;;;;;4999991;28;20045;-73
2023/04/30 10:54:26;;;;;;;15.45;9.18;;;;;;;;;;5000954;28;20100;-73
2023/04/30 10:56:52;;;;;;;18.90;9.20;;;;;;;;;;5001842;28;20026;-77
2023/04/30 10:59:18;;;;;;;16.92;9.73;;;;;;;;;;5001050;28;20289;-78
2023/04/30 11:01:58;;;;;;;15.88;9.13;;;;;;;;;;5001439;28;20033;-78
2023/04/30 11:04:24;;;;;;;17.27;9.60;;;;;;;;;;5000474;28;20037;-78
2023/04/30 11:06:55;;;;;;;16.30;9.55;;;;;;;;;;5000588;28;20022;-80
2023/04/30 11:09:36;;;;;;;14.25;8.73;;;;;;;;;;5000675;28;20041;-78
2023/04/30 11:12:03;;;;;;;16.58;9.07;;;;;;;;;;5000795;28;20045;-78
2023/04/30 11:14:31;;;;;;;16.42;9.50;;;;;;;;;;5000812;28;20026;-80
2023/04/30 11:16:59;;;;;;;19.83;8.60;;;;;;;;;;5000763;28;20377;-79
2023/04/30 11:19:26;;;;;;;17.60;8.93;;;;;;;;;;5000756;28;20029;-83
2023/04/30 11:22:04;;;;;;;18.23;8.77;;;;;;;;;;5000195;28;20026;-78
2023/04/30 11:24:51;;;;;;;16.20;8.82;;;;;;;;;;5000650;28;20263;-77
2023/04/30 11:27:25;;;;;;;16.65;8.15;;;;;;;;;;5000018;28;20058;-79
2023/04/30 11:29:51;;;;;;;14.40;8.63;;;;;;;;;;4999795;28;20045;-77
2023/04/30 11:32:21;;;;;;;14.95;8.30;;;;;;;;;;5000267;28;20037;-79
2023/04/30 11:34:53;;;;;;;16.00;8.88;;;;;;;;;;5000310;28;20130;-77
2023/04/30 11:37:36;;;;;;;14.55;7.60;;;;;;;;;;5000062;28;20034;-76
2023/04/30 11:40:06;;;;;;;16.45;7.90;;;;;;;;;;4998375;28;20026;-77
2023/04/30 11:42:35;;;;;;;15.35;7.35;;;;;;;;;;4999895;28;20033;-77
2023/04/30 11:45:12;;;;;;;10.43;7.03;;;;;;;;;;4999991;28;20036;-78
2023/04/30 11:47:49;;;;;;;12.57;6.95;;;;;;;;;;4987333;28;20033;-78
2023/04/30 11:50:25;;;;;;;14.75;7.70;;;;;;;;;;5000207;28;20037;-79
2023/04/30 11:52:52;;;;;;;11.63;6.50;;;;;;;;;;4999329;28;20360;-79
2023/04/30 11:55:20;;;;;;;41.17;7.55;;;;;;;;;;5000351;28;20031;-82
2023/04/30 11:57:48;;;;;;;34.83;8.52;;;;;;;;;;5000076;28;20090;-79
2023/04/30 12:00:17;;;;;;;11.50;6.72;;;;;;;;;;4999800;28;20081;-80
2023/04/30 12:02:44;;;;;;;12.30;7.10;;;;;;;;;;5000748;28;20232;-82
2023/04/30 12:05:15;;;;;;;13.27;6.53;;;;;;;;;;5000078;28;20030;-79
2023/04/30 12:08:08;;;;;;;11.88;6.35;;;;;;;;;;4999318;28;20042;-82
2023/04/30 12:10:34;;;;;;;13.32;6.47;;;;;;;;;;5000069;28;20022;-83
2023/04/30 12:13:00;;;;;;;12.73;6.00;;;;;;;;;;4997894;28;20038;-80
2023/04/30 12:15:26;;;;;;;14.18;6.10;;;;;;;;;;4999662;28;20037;-80
2023/04/30 12:17:56;;;;;;;10.15;5.75;;;;;;;;;;4999530;28;20061;-79
2023/04/30 12:20:24;;;;;;;11.80;5.65;;;;;;;;;;4999942;28;20018;-80
2023/04/30 12:22:50;;;;;;;11.82;5.68;;;;;;;;;;4999479;28;20033;-78
2023/04/30 12:25:20;;;;;;;10.88;5.55;;;;;;;;;;4999837;28;20026;-79
2023/04/30 12:27:52;;;;;;;11.18;5.35;;;;;;;;;;4999159;28;20061;-80
2023/04/30 12:30:20;;;;;;;9.77;4.70;;;;;;;;;;4999339;28;20026;-80
2023/04/30 12:32:49;;;;;;;9.90;4.40;;;;;;;;;;4999984;28;20287;-81
2023/04/30 12:35:17;;;;;;;7.30;4.60;;;;;;;;;;5000464;28;20022;-81
2023/04/30 12:38:01;;;;;;;7.60;4.30;;;;;;;;;;5000169;28;20033;-79
2023/04/30 12:40:27;;;;;;;6.72;4.22;;;;;;;;;;5000688;28;20026;-81
2023/04/30 12:43:14;;;;;;;9.52;4.07;;;;;;;;;;5000532;28;20098;-81
2023/04/30 12:45:52;;;;;;;8.52;4.13;;;;;;;;;;4998962;28;20038;-80
2023/04/30 12:48:20;;;;;;;6.28;3.80;;;;;;;;;;5000540;28;20022;-80
2023/04/30 12:51:03;;;;;;;6.97;3.95;;;;;;;;;;4999406;28;20031;-81
2023/04/30 12:53:30;;;;;;;6.40;4.25;;;;;;;;;;5015806;28;20034;-85
2023/04/30 12:56:15;;;;;;;7.28;4.40;;;;;;;;;;5000123;28;20133;-79
2023/04/30 12:58:47;;;;;;;7.22;4.40;;;;;;;;;;5000099;28;20062;-78
2023/04/30 13:01:15;;;;;;;7.47;4.10;;;;;;;;;;4999997;28;20293;-78
2023/04/30 13:03:40;;;;;;;8.88;4.00;;;;;;;;;;5000285;28;20018;-77
2023/04/30 13:06:08;;;;;;;8.30;4.07;;;;;;;;;;4999843;28;20026;-77
2023/04/30 13:08:34;;;;;;;8.60;3.85;;;;;;;;;;5000293;28;20082;-85
2023/04/30 13:10:59;;;;;;;6.85;4.25;;;;;;;;;;4999578;28;20038;-79
2023/04/30 13:13:25;;;;;;;7.05;3.70;;;;;;;;;;4999609;28;20018;-77
2023/04/30 13:15:50;;;;;;;7.60;3.67;;;;;;;;;;4999377;28;20188;-77
2023/04/30 13:18:16;;;;;;;9.85;3.90;;;;;;;;;;4999700;28;20349;-79
2023/04/30 13:20:44;;;;;;;9.88;3.88;;;;;;;;;;4998866;28;20228;-78
2023/04/30 13:23:13;;;;;;;8.38;3.70;;;;;;;;;;4999388;28;20026;-79
2023/04/30 13:25:40;;;;;;;6.53;3.05;;;;;;;;;;4999910;28;20030;-78
2023/04/30 13:28:06;;;;;;;6.10;2.90;;;;;;;;;;4998959;28;20046;-78
2023/04/30 13:30:32;;;;;;;7.35;3.30;;;;;;;;;;4997866;28;20089;-78
2023/04/30 13:32:58;;;;;;;5.88;2.95;;;;;;;;;;4998586;28;20101;-77
2023/04/30 13:35:23;;;;;;;5.55;2.80;;;;;;;;;;4998680;28;20106;-83
2023/04/30 13:37:51;;;;;;;6.93;2.70;;;;;;;;;;4998081;28;20480;-81
2023/04/30 13:40:17;;;;;;;4.15;2.70;;;;;;;;;;4999449;28;20026;-83
2023/04/30 13:42:44;;;;;;;6.18;2.95;;;;;;;;;;4998462;28;20045;-81
2023/04/30 13:45:10;;;;;;;6.88;3.00;;;;;;;;;;4997904;28;20023;-79
2023/04/30 13:47:36;;;;;;;5.15;2.60;;;;;;;;;;4997976;28;20029;-86
2023/04/30 13:50:02;;;;;;;5.28;2.40;;;;;;;;;;4999158;28;20053;-85
2023/04/30 13:52:27;;;;;;;5.53;2.78;;;;;;;;;;4996945;28;20281;-81
2023/04/30 13:54:53;;;;;;;5.95;2.55;;;;;;;;;;4998968;28;20344;-83
2023/04/30 13:57:18;;;;;;;6.15;2.50;;;;;;;;;;4998968;28;20033;-83
2023/04/30 13:59:44;;;;;;;6.60;2.47;;;;;;;;;;5008713;28;20396;-84
2023/04/30 14:02:10;;;;;;;5.05;2.63;;;;;;;;;;5006969;28;20052;-79
2023/04/30 14:04:37;;;;;;;6.70;2.78;;;;;;;;;;5010234;28;20049;-79
2023/04/30 14:07:04;;;;;;;4.22;2.58;;;;;;;;;;5012162;28;20014;-82
2023/04/30 14:09:29;;;;;;;6.78;2.70;;;;;;;;;;5012962;28;20088;-87
2023/04/30 14:11:57;;;;;;;5.38;2.78;;;;;;;;;;5012725;28;20034;-84
2023/04/30 14:14:25;;;;;;;6.68;2.90;;;;;;;;;;5006219;28;20065;-87
2023/04/30 14:16:53;;;;;;;5.05;2.88;;;;;;;;;;5014605;28;20037;-86
2023/04/30 14:19:20;;;;;;;5.25;2.63;;;;;;;;;;5010451;28;20034;-82
2023/04/30 14:21:45;;;;;;;5.15;2.63;;;;;;;;;;5011552;28;20022;-83
2023/04/30 14:24:11;;;;;;;5.38;2.60;;;;;;;;;;5010962;28;20093;-85
2023/04/30 14:26:38;;;;;;;5.03;2.42;;;;;;;;;;5013298;28;20310;-83
2023/04/30 14:29:03;;;;;;;4.13;2.25;;;;;;;;;;5022117;28;20029;-89
2023/04/30 14:31:29;;;;;;;4.38;2.45;;;;;;;;;;5021981;28;20217;-85
2023/04/30 14:33:54;;;;;;;4.68;2.30;;;;;;;;;;5021354;28;20044;-85
2023/04/30 14:36:20;;;;;;;4.50;2.60;;;;;;;;;;5019653;28;20141;-82
2023/04/30 14:38:45;;;;;;;5.30;2.50;;;;;;;;;;5021098;28;20057;-82
2023/04/30 14:41:11;;;;;;;5.15;2.33;;;;;;;;;;5021964;28;20096;-88
2023/04/30 14:43:37;;;;;;;4.28;2.42;;;;;;;;;;5021754;28;20037;-89